Time;durP1;ratioP1;P1;durP2;ratioP2;P2;SDS_P1;SDS_P2;PMS_P1;PMS_P2;Temp;Humidity;BMP_temperature;BMP_pressure;BME280_temperature;BME280_humidity;BME280_pressure;Samples;Min_cycle;Max_cycle;Signal;HPM_P1;HPM_P2
2022/07/20 00:01:16;;;;;;;4.88;3.47;;;22.10;77.70;;;;;;5107790;28;20222;-51
2022/07/20 00:03:46;;;;;;;3.97;3.58;;;22.10;78.50;;;;;;5109992;28;20219;-51
2022/07/20 00:06:15;;;;;;;5.18;3.65;;;22.10;79.10;;;;;;5109881;28;20280;-51
2022/07/20 00:11:28;;;;;;;5.03;3.20;;;22.00;79.60;;;;;;5109705;28;20668;-51
2022/07/20 00:13:58;;;;;;;6.47;3.80;;;22.00;79.00;;;;;;5109798;28;20241;-52
2022/07/20 00:16:28;;;;;;;7.93;3.70;;;21.90;80.30;;;;;;5109199;28;20273;-51
2022/07/20 00:18:58;;;;;;;4.43;3.70;;;21.90;80.00;;;;;;5109607;28;20209;-51
2022/07/20 00:21:26;;;;;;;4.72;3.33;;;21.90;80.60;;;;;;5109849;28;20225;-50
2022/07/20 00:23:54;;;;;;;5.22;3.50;;;21.80;79.80;;;;;;5109852;28;20235;-51
2022/07/20 00:26:23;;;;;;;6.95;3.67;;;21.80;80.70;;;;;;5109955;28;20288;-51
2022/07/20 00:28:51;;;;;;;4.45;3.42;;;21.70;80.70;;;;;;5110086;28;20614;-50
2022/07/20 00:31:21;;;;;;;6.60;3.60;;;21.60;81.60;;;;;;5107988;28;20210;-51
2022/07/20 00:33:50;;;;;;;5.53;3.60;;;21.60;82.10;;;;;;5109691;28;20200;-51
2022/07/20 00:36:20;;;;;;;5.75;3.65;;;21.60;82.80;;;;;;5110122;28;20288;-50
2022/07/20 00:38:48;;;;;;;5.82;3.58;;;21.50;82.60;;;;;;5109684;28;20245;-49
2022/07/20 00:41:17;;;;;;;4.40;3.47;;;21.50;82.40;;;;;;5109672;28;20200;-50
2022/07/20 00:43:56;;;;;;;7.00;3.72;;;21.40;83.00;;;;;;5109225;28;20199;-51
2022/07/20 00:46:25;;;;;;;6.20;3.70;;;21.50;82.70;;;;;;5109290;28;20223;-50
2022/07/20 00:48:53;;;;;;;5.57;3.53;;;21.40;82.40;;;;;;5111593;28;20199;-52
2022/07/20 00:51:23;;;;;;;7.32;3.75;;;21.40;81.80;;;;;;5114108;28;20267;-51
2022/07/20 00:53:51;;;;;;;5.30;4.00;;;21.40;81.70;;;;;;5114394;28;20212;-51
2022/07/20 00:56:20;;;;;;;5.55;3.78;;;21.40;82.20;;;;;;5113703;28;20264;-51
2022/07/20 00:58:49;;;;;;;6.88;3.78;;;21.30;82.80;;;;;;5113691;28;20626;-51
2022/07/20 01:01:18;;;;;;;5.78;3.75;;;21.20;83.80;;;;;;5113683;28;20210;-51
2022/07/20 01:03:46;;;;;;;6.50;3.70;;;21.20;83.50;;;;;;5113800;28;20207;-51
2022/07/20 01:06:14;;;;;;;4.35;3.88;;;21.20;82.30;;;;;;5113924;28;20228;-51
2022/07/20 01:08:44;;;;;;;3.85;3.47;;;21.20;83.20;;;;;;5113077;28;20211;-51
2022/07/20 01:11:12;;;;;;;7.78;3.97;;;21.20;84.40;;;;;;5113324;28;20323;-51
2022/07/20 01:13:40;;;;;;;8.65;4.20;;;21.10;84.50;;;;;;5113215;28;20249;-50
2022/07/20 01:16:08;;;;;;;4.60;3.55;;;21.10;85.40;;;;;;5112507;28;20215;-51
2022/07/20 01:18:37;;;;;;;5.38;3.90;;;21.00;85.80;;;;;;5113190;28;20256;-51
2022/07/20 01:21:08;;;;;;;6.05;3.72;;;21.00;85.80;;;;;;5113077;28;20223;-50
2022/07/20 01:23:36;;;;;;;8.15;3.78;;;20.90;85.10;;;;;;5113099;28;20196;-51
2022/07/20 01:26:04;;;;;;;4.90;3.88;;;20.90;85.30;;;;;;5112182;28;20258;-52
2022/07/20 01:28:32;;;;;;;5.45;3.92;;;20.90;84.90;;;;;;5115209;28;20207;-51
2022/07/20 01:31:01;;;;;;;5.40;3.70;;;20.90;85.10;;;;;;5113036;28;20241;-50
2022/07/20 01:33:29;;;;;;;7.28;4.00;;;20.90;86.50;;;;;;5112762;28;20207;-50
2022/07/20 01:35:57;;;;;;;5.88;3.75;;;20.80;86.70;;;;;;5112896;28;20724;-51
2022/07/20 01:38:26;;;;;;;8.13;4.20;;;20.80;86.60;;;;;;5112342;28;20296;-51
2022/07/20 01:40:54;;;;;;;4.45;3.45;;;20.80;86.10;;;;;;5113068;28;20246;-50
2022/07/20 01:43:23;;;;;;;5.15;3.78;;;20.70;85.40;;;;;;5112706;28;20272;-50
2022/07/20 01:45:51;;;;;;;4.85;3.80;;;20.70;86.10;;;;;;5112144;28;20684;-51
2022/07/20 01:48:19;;;;;;;6.03;3.90;;;20.70;85.90;;;;;;5112795;28;20261;-51
2022/07/20 01:50:47;;;;;;;4.68;3.88;;;20.60;86.60;;;;;;5111860;28;20256;-51
2022/07/20 01:53:15;;;;;;;8.77;4.00;;;20.60;87.00;;;;;;5112614;28;20215;-51
2022/07/20 01:55:44;;;;;;;5.88;3.47;;;20.60;87.00;;;;;;5112643;28;20220;-50
2022/07/20 01:58:12;;;;;;;6.78;4.13;;;20.60;87.10;;;;;;5112905;28;20207;-50
2022/07/20 02:00:41;;;;;;;6.65;3.90;;;20.50;87.50;;;;;;5111474;28;20663;-50
2022/07/20 02:03:09;;;;;;;4.35;3.63;;;20.50;87.30;;;;;;5112028;28;20299;-51
2022/07/20 02:05:37;;;;;;;4.82;3.90;;;20.50;87.50;;;;;;5097614;28;20257;-51
2022/07/20 02:08:06;;;;;;;8.02;4.05;;;20.50;87.70;;;;;;5112201;28;20211;-51
2022/07/20 02:10:34;;;;;;;5.47;3.80;;;20.40;88.40;;;;;;5112360;28;20735;-51
2022/07/20 02:13:03;;;;;;;4.45;3.97;;;20.40;88.50;;;;;;5112587;28;20260;-50
2022/07/20 02:18:28;;;;;;;4.10;3.50;;;20.30;88.20;;;;;;5068961;28;20216;-50
2022/07/20 02:20:56;;;;;;;5.45;3.90;;;20.30;89.10;;;;;;5101949;28;20215;-51
2022/07/20 02:23:24;;;;;;;6.85;3.85;;;20.20;89.80;;;;;;5112030;28;20253;-51
2022/07/20 02:25:52;;;;;;;8.05;4.10;;;20.20;89.60;;;;;;5111773;28;20740;-49
2022/07/20 02:28:22;;;;;;;5.88;3.75;;;20.20;89.00;;;;;;5112031;28;20211;-51
2022/07/20 02:30:50;;;;;;;4.18;3.78;;;20.20;89.90;;;;;;5111345;28;20258;-51
2022/07/20 02:33:18;;;;;;;6.45;3.78;;;20.20;90.10;;;;;;5112397;28;20207;-51
2022/07/20 02:35:46;;;;;;;4.05;3.40;;;20.10;90.00;;;;;;5111634;28;20960;-51
2022/07/20 02:38:14;;;;;;;5.13;3.88;;;20.10;90.00;;;;;;5111755;28;20196;-50
2022/07/20 02:40:42;;;;;;;9.57;4.45;;;20.10;89.10;;;;;;5112343;28;20246;-51
2022/07/20 02:43:11;;;;;;;5.68;3.63;;;20.10;88.90;;;;;;5111968;28;20203;-50
2022/07/20 02:45:40;;;;;;;5.03;3.33;;;20.10;87.90;;;;;;5111484;28;20649;-51
2022/07/20 02:48:08;;;;;;;7.25;3.35;;;20.20;86.90;;;;;;5111565;28;20691;-50
2022/07/20 02:50:38;;;;;;;5.80;3.63;;;20.30;86.40;;;;;;5111725;28;20216;-51
2022/07/20 02:53:06;;;;;;;5.78;3.83;;;20.40;85.90;;;;;;5111641;28;20207;-51
2022/07/20 02:55:34;;;;;;;8.63;3.60;;;20.50;85.60;;;;;;5110943;28;20265;-50
2022/07/20 02:58:03;;;;;;;4.93;3.75;;;20.50;85.20;;;;;;5111353;28;20673;-49
2022/07/20 03:00:31;;;;;;;5.35;3.47;;;20.50;85.30;;;;;;5111350;28;20261;-50
2022/07/20 03:03:01;;;;;;;8.38;4.05;;;20.40;85.90;;;;;;5111111;28;20733;-51
2022/07/20 03:05:29;;;;;;;6.78;3.90;;;20.30;86.20;;;;;;5111274;28;20311;-50
2022/07/20 03:07:57;;;;;;;6.82;3.75;;;20.30;86.40;;;;;;5110763;28;20625;-51
2022/07/20 03:10:25;;;;;;;5.68;3.88;;;20.20;87.20;;;;;;5111317;28;20208;-51
2022/07/20 03:12:53;;;;;;;5.20;3.72;;;20.20;87.40;;;;;;5110162;28;20264;-50
2022/07/20 03:15:22;;;;;;;7.32;4.40;;;20.10;87.10;;;;;;5110342;28;20652;-51
2022/07/20 03:17:51;;;;;;;7.85;4.38;;;20.20;87.30;;;;;;5111604;28;20266;-51
2022/07/20 03:20:23;;;;;;;5.63;3.97;;;20.10;87.30;;;;;;5110654;28;20218;-51
2022/07/20 03:22:52;;;;;;;5.28;3.60;;;20.10;87.00;;;;;;5111008;28;20203;-50
2022/07/20 03:25:20;;;;;;;5.00;3.90;;;20.10;87.10;;;;;;5114913;28;20253;-51
2022/07/20 03:27:48;;;;;;;5.47;4.03;;;20.20;87.20;;;;;;5116099;28;20207;-50
2022/07/20 03:30:16;;;;;;;6.47;3.80;;;20.10;87.70;;;;;;5113081;28;20203;-51
2022/07/20 03:32:44;;;;;;;4.97;4.13;;;20.10;88.80;;;;;;5110820;28;20199;-51
2022/07/20 03:35:12;;;;;;;4.90;4.05;;;20.00;89.70;;;;;;5110308;28;20231;-51
2022/07/20 03:37:42;;;;;;;6.07;4.05;;;19.90;90.00;;;;;;5109998;28;20204;-51
2022/07/20 03:40:11;;;;;;;7.50;4.50;;;19.90;89.90;;;;;;5107142;28;21014;-50
2022/07/20 03:42:39;;;;;;;5.18;4.57;;;19.90;90.00;;;;;;5110415;28;20692;-50
2022/07/20 03:45:08;;;;;;;5.68;4.00;;;19.90;90.10;;;;;;5110335;28;20724;-51
2022/07/20 03:47:36;;;;;;;4.40;3.83;;;19.80;90.40;;;;;;5110035;28;20258;-51
2022/07/20 03:50:05;;;;;;;5.93;3.83;;;19.80;90.50;;;;;;5110059;28;20631;-50
2022/07/20 03:52:34;;;;;;;8.10;3.92;;;19.80;90.20;;;;;;5109765;28;20226;-51
2022/07/20 03:55:04;;;;;;;4.25;3.63;;;19.80;90.30;;;;;;5109491;28;20387;-50
2022/07/20 03:57:33;;;;;;;7.13;4.03;;;19.80;90.40;;;;;;5110464;28;20206;-50
2022/07/20 04:00:01;;;;;;;7.82;4.15;;;19.80;90.40;;;;;;5110261;28;20216;-50
2022/07/20 04:02:29;;;;;;;4.80;4.05;;;19.80;90.80;;;;;;5109703;28;20633;-51
2022/07/20 04:04:57;;;;;;;9.43;5.10;;;19.80;91.10;;;;;;5109648;28;20231;-51
2022/07/20 04:07:25;;;;;;;6.68;4.25;;;19.80;90.90;;;;;;5109571;28;20232;-51
2022/07/20 04:09:53;;;;;;;5.80;4.18;;;19.80;91.50;;;;;;5110343;28;20203;-50
2022/07/20 04:12:24;;;;;;;6.60;4.75;;;19.80;92.30;;;;;;5112175;28;20221;-51
2022/07/20 04:14:53;;;;;;;6.50;4.28;;;19.80;92.40;;;;;;5111330;28;20269;-50
2022/07/20 04:17:22;;;;;;;5.32;4.50;;;19.80;92.90;;;;;;5112016;28;20207;-51
2022/07/20 04:19:51;;;;;;;8.73;4.70;;;19.80;93.10;;;;;;5111318;28;20215;-50
2022/07/20 04:22:19;;;;;;;11.30;4.45;;;19.90;92.80;;;;;;5110264;28;20253;-50
2022/07/20 04:24:47;;;;;;;6.43;3.88;;;20.70;92.30;;;;;;5109612;28;20227;-51
2022/07/20 04:27:15;;;;;;;5.80;4.32;;;21.60;91.00;;;;;;5110330;28;20570;-51
2022/07/20 04:29:44;;;;;;;5.15;3.75;;;22.40;89.70;;;;;;5110132;28;20284;-52
2022/07/20 04:32:12;;;;;;;4.97;4.40;;;23.00;88.30;;;;;;5110101;28;20612;-51
2022/07/20 04:34:40;;;;;;;7.53;4.22;;;23.50;88.10;;;;;;5109221;28;20199;-51
2022/07/20 04:37:10;;;;;;;4.80;3.90;;;24.00;87.80;;;;;;5109309;28;20215;-52
2022/07/20 04:39:38;;;;;;;6.13;3.90;;;24.30;87.50;;;;;;5109817;28;20676;-53
2022/07/20 04:42:07;;;;;;;4.70;3.83;;;24.70;87.30;;;;;;5110879;28;20219;-52
2022/07/20 04:44:35;;;;;;;9.00;4.35;;;25.20;86.10;;;;;;5100917;28;20196;-52
2022/07/20 04:47:05;;;;;;;7.53;4.72;;;25.50;83.80;;;;;;5108561;28;20273;-52
2022/07/20 04:49:33;;;;;;;5.40;4.10;;;25.80;82.20;;;;;;5108899;28;20200;-53
2022/07/20 04:52:01;;;;;;;6.25;4.40;;;26.10;82.40;;;;;;5108680;28;20207;-52
2022/07/20 04:54:29;;;;;;;7.05;4.32;;;26.40;82.40;;;;;;5107019;28;20585;-52
2022/07/20 04:56:57;;;;;;;6.60;4.28;;;26.70;81.10;;;;;;5094295;28;20204;-52
2022/07/20 04:59:25;;;;;;;7.93;4.30;;;26.90;81.40;;;;;;5101362;28;20261;-52
2022/07/20 05:01:53;;;;;;;7.13;4.65;;;27.30;79.30;;;;;;5108968;28;20199;-52
2022/07/20 05:04:23;;;;;;;7.05;4.13;;;27.40;78.80;;;;;;5108315;28;20208;-50
2022/07/20 05:06:51;;;;;;;5.90;3.90;;;27.40;79.10;;;;;;5108992;28;20230;-52
2022/07/20 05:09:19;;;;;;;4.82;3.70;;;27.80;78.70;;;;;;5109776;28;20212;-52
2022/07/20 05:11:47;;;;;;;4.15;3.70;;;28.10;77.30;;;;;;5105515;28;20207;-52
2022/07/20 05:14:15;;;;;;;6.72;3.97;;;28.30;78.10;;;;;;5108111;28;20722;-51
2022/07/20 05:16:45;;;;;;;4.07;3.70;;;28.80;78.20;;;;;;5097909;28;20685;-52
2022/07/20 05:19:13;;;;;;;6.80;3.97;;;29.10;76.90;;;;;;5090559;28;20212;-51
2022/07/20 05:21:43;;;;;;;4.00;3.50;;;29.40;75.20;;;;;;5091083;28;20270;-52
2022/07/20 05:24:11;;;;;;;5.65;3.97;;;29.70;72.30;;;;;;5092888;28;20260;-52
2022/07/20 05:26:39;;;;;;;8.85;4.10;;;29.90;75.10;;;;;;5096969;28;20219;-52
2022/07/20 05:29:08;;;;;;;4.82;3.80;;;30.30;73.20;;;;;;5091550;28;20261;-51
2022/07/20 05:31:36;;;;;;;5.40;4.10;;;30.50;71.30;;;;;;5090559;28;20204;-51
2022/07/20 05:34:04;;;;;;;10.55;4.78;;;30.70;73.00;;;;;;5095327;28;20230;-51
2022/07/20 05:36:32;;;;;;;9.93;4.28;;;30.90;72.50;;;;;;5108311;28;20223;-53
2022/07/20 05:39:02;;;;;;;7.30;4.10;;;31.10;72.70;;;;;;5096157;28;20196;-52
2022/07/20 05:41:30;;;;;;;6.03;3.58;;;31.30;72.30;;;;;;5110260;28;20225;-52
2022/07/20 05:43:59;;;;;;;8.32;4.03;;;31.50;71.50;;;;;;5111107;28;20248;-52
2022/07/20 05:46:27;;;;;;;9.32;4.13;;;31.70;68.10;;;;;;5109770;28;20227;-51
2022/07/20 05:48:55;;;;;;;9.73;3.70;;;31.90;67.40;;;;;;5109235;28;20208;-52
2022/07/20 05:51:23;;;;;;;7.80;4.20;;;32.20;67.50;;;;;;5110408;28;20208;-52
2022/07/20 05:53:59;;;;;;;6.22;4.00;;;32.40;67.60;;;;;;5112619;28;20217;-52
2022/07/20 05:56:28;;;;;;;9.65;3.97;;;32.60;66.10;;;;;;5111953;28;20647;-52
2022/07/20 05:58:56;;;;;;;6.88;3.67;;;32.70;66.30;;;;;;5112171;28;20256;-50
2022/07/20 06:01:24;;;;;;;6.15;3.50;;;32.80;65.40;;;;;;5111858;28;20211;-52
2022/07/20 06:03:52;;;;;;;8.35;3.70;;;32.90;65.50;;;;;;5111941;28;20203;-52
2022/07/20 06:06:20;;;;;;;8.90;4.20;;;32.90;64.30;;;;;;5112602;28;20227;-51
2022/07/20 06:08:49;;;;;;;6.78;4.22;;;33.10;63.50;;;;;;5112058;28;20244;-52
2022/07/20 06:11:38;;;;;;;10.88;3.70;;;33.30;65.50;;;;;;5112254;28;20671;-51
2022/07/20 06:14:06;;;;;;;4.20;3.60;;;33.70;63.70;;;;;;5112158;28;20240;-50
2022/07/20 06:16:34;;;;;;;4.68;3.88;;;33.90;62.30;;;;;;5108186;28;20227;-52
2022/07/20 06:19:02;;;;;;;6.65;3.63;;;34.20;62.30;;;;;;5111731;28;20260;-52
2022/07/20 06:21:30;;;;;;;5.93;3.67;;;34.20;62.50;;;;;;5111956;28;20207;-52
2022/07/20 06:23:58;;;;;;;4.63;3.70;;;34.30;62.00;;;;;;5111947;28;20255;-52
2022/07/20 06:26:26;;;;;;;5.25;3.60;;;34.40;63.00;;;;;;5111812;28;20227;-52
2022/07/20 06:28:56;;;;;;;5.93;3.83;;;34.60;63.00;;;;;;5111968;28;20271;-52
2022/07/20 06:31:24;;;;;;;7.03;3.50;;;34.80;61.60;;;;;;5111121;28;20847;-52
2022/07/20 06:34:13;;;;;;;9.30;3.80;;;35.10;62.30;;;;;;5111492;28;20261;-52
2022/07/20 06:36:42;;;;;;;6.35;4.10;;;35.10;59.70;;;;;;5111450;28;20227;-51
2022/07/20 06:39:10;;;;;;;6.30;3.90;;;35.30;61.50;;;;;;5112146;28;20203;-52
2022/07/20 06:41:38;;;;;;;7.78;3.83;;;35.40;62.00;;;;;;5112094;28;20232;-51
2022/07/20 06:44:07;;;;;;;7.28;3.60;;;35.60;63.50;;;;;;5111594;28;20785;-52
2022/07/20 06:46:35;;;;;;;4.65;3.33;;;35.50;60.30;;;;;;5110346;28;20231;-52
2022/07/20 06:49:06;;;;;;;5.82;3.75;;;35.60;62.00;;;;;;5106767;28;20222;-52
2022/07/20 06:51:34;;;;;;;5.30;3.30;;;35.70;58.30;;;;;;5101504;28;20614;-53
2022/07/20 06:54:02;;;;;;;7.32;3.45;;;35.80;59.20;;;;;;5107409;27;20211;-52
2022/07/20 06:56:30;;;;;;;5.22;3.70;;;35.90;57.20;;;;;;5110562;28;20227;-52
2022/07/20 06:58:58;;;;;;;7.60;3.70;;;36.00;58.60;;;;;;5108978;28;20244;-51
2022/07/20 07:01:27;;;;;;;6.80;3.13;;;36.10;57.20;;;;;;5109912;27;21087;-52
2022/07/20 07:03:56;;;;;;;4.40;3.22;;;36.00;55.60;;;;;;5105721;28;20237;-51
2022/07/20 07:06:27;;;;;;;4.78;3.20;;;36.00;56.20;;;;;;5110533;28;20288;-52
2022/07/20 07:08:55;;;;;;;5.93;3.55;;;36.10;55.10;;;;;;5111285;28;20343;-52
2022/07/20 07:11:23;;;;;;;3.65;3.30;;;36.10;53.90;;;;;;5110591;28;20272;-52
2022/07/20 07:13:52;;;;;;;4.20;3.00;;;36.30;53.80;;;;;;5109914;28;20203;-52
2022/07/20 07:16:20;;;;;;;5.75;3.53;;;36.40;54.50;;;;;;5110190;28;20230;-53
2022/07/20 07:18:49;;;;;;;8.32;3.20;;;36.40;53.90;;;;;;5110475;28;20203;-52
2022/07/20 07:21:18;;;;;;;6.47;3.08;;;36.50;54.60;;;;;;5110910;28;20293;-53
2022/07/20 07:23:49;;;;;;;4.50;3.20;;;36.40;54.20;;;;;;5110356;28;20214;-52
2022/07/20 07:26:18;;;;;;;3.75;2.75;;;36.50;53.90;;;;;;5110381;28;20313;-51
2022/07/20 07:28:47;;;;;;;3.80;3.25;;;36.70;52.90;;;;;;5110647;28;20245;-52
2022/07/20 07:31:17;;;;;;;5.28;3.30;;;36.40;53.00;;;;;;5100469;28;20207;-52
2022/07/20 07:33:46;;;;;;;4.45;3.30;;;36.40;53.00;;;;;;5106479;28;20203;-51
2022/07/20 07:36:16;;;;;;;3.53;3.00;;;36.60;53.10;;;;;;5108836;28;20222;-52
2022/07/20 07:38:44;;;;;;;5.22;3.28;;;36.50;52.80;;;;;;5109239;28;20199;-52
2022/07/20 07:41:13;;;;;;;5.63;3.30;;;36.70;52.30;;;;;;5110141;28;20242;-52
2022/07/20 07:43:42;;;;;;;5.90;2.67;;;36.60;52.40;;;;;;5109926;28;20940;-52
2022/07/20 07:46:10;;;;;;;6.32;3.28;;;36.70;53.20;;;;;;5109442;28;20227;-52
2022/07/20 07:48:38;;;;;;;4.43;3.30;;;36.90;53.00;;;;;;5109921;28;20976;-52
2022/07/20 07:51:07;;;;;;;4.45;3.20;;;37.00;52.70;;;;;;5109356;28;20214;-52
2022/07/20 07:53:36;;;;;;;6.47;3.47;;;37.10;52.40;;;;;;5109359;28;20199;-53
2022/07/20 07:56:05;;;;;;;3.38;3.08;;;37.20;51.80;;;;;;5109340;28;20227;-52
2022/07/20 07:58:33;;;;;;;3.88;3.10;;;37.10;52.00;;;;;;5107697;28;20203;-53
2022/07/20 08:01:02;;;;;;;5.68;3.17;;;37.20;52.00;;;;;;5105239;28;20684;-50
2022/07/20 08:03:30;;;;;;;5.75;2.97;;;37.00;52.40;;;;;;5108967;28;20248;-51
2022/07/20 08:06:01;;;;;;;4.53;3.30;;;37.00;52.30;;;;;;5107442;28;20246;-52
2022/07/20 08:08:29;;;;;;;3.88;2.80;;;37.00;52.30;;;;;;5109132;28;20828;-52
2022/07/20 08:10:59;;;;;;;5.82;2.80;;;36.90;52.90;;;;;;5109317;28;20668;-53
2022/07/20 08:13:28;;;;;;;4.30;3.20;;;37.10;52.60;;;;;;5109336;28;20227;-52
2022/07/20 08:15:56;;;;;;;5.68;3.38;;;36.70;51.70;;;;;;5105041;28;20821;-52
2022/07/20 08:18:24;;;;;;;8.63;3.13;;;36.40;52.30;;;;;;5110011;28;20671;-52
2022/07/20 08:20:53;;;;;;;5.57;3.03;;;35.90;51.90;;;;;;5107337;28;20207;-52
2022/07/20 08:23:21;;;;;;;4.57;2.80;;;35.80;52.30;;;;;;5102582;28;20198;-51
2022/07/20 08:25:49;;;;;;;5.38;3.15;;;35.80;53.40;;;;;;5093875;28;20234;-52
2022/07/20 08:28:22;;;;;;;5.07;3.17;;;35.80;53.60;;;;;;5089592;28;20707;-52
2022/07/20 08:30:52;;;;;;;5.60;3.03;;;35.60;52.90;;;;;;5106560;28;20655;-52
2022/07/20 08:33:23;;;;;;;4.80;2.90;;;35.50;52.70;;;;;;5101005;28;20614;-52
2022/07/20 08:35:51;;;;;;;7.82;3.30;;;35.50;53.90;;;;;;5095711;28;20230;-51
2022/07/20 08:38:19;;;;;;;4.22;2.90;;;35.40;53.00;;;;;;5107919;28;20203;-51
2022/07/20 08:40:48;;;;;;;5.30;3.38;;;35.40;53.00;;;;;;5105330;28;20206;-51
2022/07/20 08:43:17;;;;;;;7.57;3.33;;;35.10;53.60;;;;;;5109623;28;20213;-52
2022/07/20 08:45:48;;;;;;;4.63;3.38;;;35.10;53.80;;;;;;5109460;28;20257;-52
2022/07/20 08:48:19;;;;;;;5.50;3.30;;;35.20;55.00;;;;;;5106604;28;20297;-52
2022/07/20 08:50:48;;;;;;;5.13;3.47;;;35.10;53.40;;;;;;5109128;28;20202;-52
2022/07/20 08:53:19;;;;;;;4.38;3.20;;;35.20;54.40;;;;;;5104292;28;20896;-53
2022/07/20 08:55:47;;;;;;;6.20;3.85;;;35.10;54.40;;;;;;5107215;28;20221;-52
2022/07/20 08:58:16;;;;;;;4.47;3.10;;;35.00;54.60;;;;;;5107455;28;20206;-51
2022/07/20 09:00:44;;;;;;;5.53;2.85;;;35.10;53.70;;;;;;5103636;28;20725;-51
2022/07/20 09:03:14;;;;;;;5.38;3.28;;;35.10;54.50;;;;;;5108191;28;20691;-52
2022/07/20 09:05:42;;;;;;;4.70;3.30;;;35.20;54.70;;;;;;5108998;28;20219;-52
2022/07/20 09:08:13;;;;;;;6.80;3.40;;;35.40;54.40;;;;;;5105556;28;20204;-52
2022/07/20 09:10:46;;;;;;;5.88;3.38;;;35.20;53.50;;;;;;5110132;28;20251;-50
2022/07/20 09:13:19;;;;;;;7.03;3.60;;;35.20;53.10;;;;;;5112241;28;20683;-51
2022/07/20 09:15:49;;;;;;;5.22;3.38;;;35.20;54.70;;;;;;5111505;28;20272;-52
2022/07/20 09:18:20;;;;;;;11.68;3.35;;;35.10;54.10;;;;;;5105417;28;20591;-52
2022/07/20 09:20:50;;;;;;;6.47;3.63;;;35.20;55.20;;;;;;5108719;28;20203;-52
2022/07/20 09:23:20;;;;;;;5.47;3.40;;;35.20;54.00;;;;;;5109300;28;20660;-50
2022/07/20 09:25:59;;;;;;;6.18;3.38;;;35.20;54.00;;;;;;5111453;28;20699;-52
2022/07/20 09:28:37;;;;;;;4.90;3.35;;;35.20;53.50;;;;;;5110725;28;20700;-51
2022/07/20 09:31:11;;;;;;;6.88;3.35;;;35.20;53.90;;;;;;5112203;28;20268;-52
2022/07/20 09:33:49;;;;;;;6.43;3.40;;;35.20;54.00;;;;;;5112767;28;20206;-53
2022/07/20 09:36:20;;;;;;;7.30;3.50;;;35.20;54.50;;;;;;5109405;28;20226;-52
2022/07/20 09:38:48;;;;;;;7.25;3.53;;;35.20;55.30;;;;;;5111999;28;20248;-53
2022/07/20 09:41:26;;;;;;;4.50;3.00;;;35.20;53.60;;;;;;5112271;28;20948;-52
2022/07/20 09:43:55;;;;;;;11.32;4.00;;;35.20;54.50;;;;;;5112110;28;20210;-51
2022/07/20 09:46:25;;;;;;;9.25;3.70;;;35.20;54.70;;;;;;5112131;28;20227;-51
2022/07/20 09:48:56;;;;;;;7.55;3.67;;;35.30;54.90;;;;;;5103902;28;20222;-52
2022/07/20 09:51:27;;;;;;;5.07;3.63;;;35.20;54.00;;;;;;5111863;28;20211;-52
2022/07/20 09:54:03;;;;;;;8.05;3.95;;;35.20;54.70;;;;;;5111371;28;20583;-51
2022/07/20 09:56:31;;;;;;;7.95;3.67;;;35.20;53.80;;;;;;5107571;28;20223;-52
2022/07/20 09:59:02;;;;;;;4.53;3.45;;;35.30;53.10;;;;;;5112089;28;20205;-53
2022/07/20 10:01:32;;;;;;;5.75;3.33;;;35.30;53.80;;;;;;5111129;28;20207;-52
2022/07/20 10:04:03;;;;;;;11.23;3.88;;;35.30;54.30;;;;;;5109092;28;20245;-53
2022/07/20 10:06:32;;;;;;;8.25;4.15;;;35.30;52.30;;;;;;5111353;28;20299;-52
2022/07/20 10:09:01;;;;;;;4.55;3.30;;;35.40;52.70;;;;;;5108768;28;20223;-53
2022/07/20 10:11:30;;;;;;;6.03;3.40;;;35.40;53.30;;;;;;5111987;28;20207;-53
2022/07/20 10:14:01;;;;;;;4.55;3.15;;;35.40;52.60;;;;;;5111232;28;20214;-53
2022/07/20 10:16:34;;;;;;;6.45;3.42;;;35.30;53.10;;;;;;5111180;28;20280;-53
2022/07/20 10:19:05;;;;;;;3.78;3.10;;;35.40;53.00;;;;;;5111226;28;20260;-53
2022/07/20 10:21:36;;;;;;;6.72;3.67;;;35.40;52.60;;;;;;5110698;28;20207;-52
2022/07/20 10:24:18;;;;;;;7.85;3.63;;;35.50;52.10;;;;;;5111401;28;20218;-53
2022/07/20 10:26:48;;;;;;;7.22;3.33;;;35.60;51.50;;;;;;5111235;28;20226;-52
2022/07/20 10:29:31;;;;;;;8.30;4.00;;;35.50;51.00;;;;;;5107332;28;20227;-52
2022/07/20 10:32:11;;;;;;;11.00;3.72;;;35.60;53.00;;;;;;5110292;28;20260;-53
2022/07/20 10:34:43;;;;;;;7.65;3.42;;;35.70;52.60;;;;;;5109518;28;20230;-52
2022/07/20 10:37:24;;;;;;;7.35;3.28;;;35.80;52.80;;;;;;5109838;28;20203;-53
2022/07/20 10:39:53;;;;;;;4.70;3.38;;;35.80;51.20;;;;;;5109827;28;20202;-53
2022/07/20 10:42:23;;;;;;;5.60;3.70;;;35.80;52.10;;;;;;5110901;28;20595;-52
2022/07/20 10:44:52;;;;;;;9.32;3.30;;;35.70;51.20;;;;;;5109693;28;20760;-53
2022/07/20 10:47:44;;;;;;;7.38;3.25;;;35.60;51.10;;;;;;5110356;28;20802;-53
2022/07/20 10:50:19;;;;;;;6.80;3.28;;;35.40;51.60;;;;;;5110446;28;20223;-53
2022/07/20 10:52:48;;;;;;;6.07;3.50;;;35.30;53.10;;;;;;5108556;28;20701;-51
2022/07/20 10:55:51;;;;;;;10.10;4.07;;;35.40;51.80;;;;;;5103520;28;20238;-51
2022/07/20 10:58:22;;;;;;;9.43;3.90;;;35.50;51.50;;;;;;5107014;28;20206;-53
2022/07/20 11:00:52;;;;;;;8.52;3.88;;;35.60;50.60;;;;;;5109133;28;20199;-53
2022/07/20 11:03:23;;;;;;;8.82;3.70;;;35.60;50.70;;;;;;5109403;28;20211;-53
2022/07/20 11:06:06;;;;;;;5.30;3.45;;;35.50;50.00;;;;;;5108447;28;20223;-53
2022/07/20 11:08:38;;;;;;;6.63;3.60;;;35.60;51.00;;;;;;5110504;28;20249;-53
2022/07/20 11:11:07;;;;;;;8.48;3.90;;;35.70;50.10;;;;;;5111107;28;20730;-53
2022/07/20 11:13:37;;;;;;;6.57;3.33;;;35.80;50.80;;;;;;5109294;28;20686;-52
2022/07/20 11:16:06;;;;;;;6.15;3.70;;;35.90;51.70;;;;;;5103943;28;20283;-53
2022/07/20 11:18:36;;;;;;;6.78;3.63;;;35.90;50.30;;;;;;5098666;28;20213;-53
2022/07/20 11:21:07;;;;;;;7.10;3.78;;;35.80;49.70;;;;;;5102513;28;20871;-51
2022/07/20 11:23:41;;;;;;;4.85;3.35;;;35.80;50.00;;;;;;5105298;28;20304;-52
2022/07/20 11:26:10;;;;;;;5.38;3.47;;;35.80;49.60;;;;;;5107152;28;20219;-53
2022/07/20 11:28:44;;;;;;;5.05;3.17;;;35.80;50.30;;;;;;5100793;28;20195;-53
2022/07/20 11:31:14;;;;;;;7.57;3.50;;;35.70;50.90;;;;;;5107633;28;20222;-52
2022/07/20 11:33:43;;;;;;;7.47;3.70;;;35.70;51.80;;;;;;5099331;28;20574;-52
2022/07/20 11:36:14;;;;;;;5.07;3.50;;;35.80;53.20;;;;;;5107578;28;20222;-52
2022/07/20 11:38:44;;;;;;;9.00;3.97;;;35.80;52.00;;;;;;5105337;28;20202;-52
2022/07/20 11:41:15;;;;;;;6.95;3.55;;;35.70;51.50;;;;;;5103327;28;20289;-53
2022/07/20 11:43:49;;;;;;;7.75;3.55;;;35.80;50.80;;;;;;5109930;28;20245;-53
2022/07/20 11:46:18;;;;;;;6.68;3.55;;;35.80;51.00;;;;;;5108687;28;20284;-52
2022/07/20 11:48:55;;;;;;;7.35;3.42;;;35.80;50.40;;;;;;5107311;28;20215;-52
2022/07/20 11:51:51;;;;;;;8.40;4.07;;;35.70;50.60;;;;;;5107720;28;20683;-53
2022/07/20 11:54:21;;;;;;;4.95;3.58;;;35.60;50.50;;;;;;5099667;28;20203;-52
2022/07/20 11:56:51;;;;;;;7.25;3.60;;;35.60;50.90;;;;;;5108901;28;20431;-52
2022/07/20 11:59:20;;;;;;;6.75;3.65;;;35.70;51.30;;;;;;5108902;28;20295;-51
2022/07/20 12:01:50;;;;;;;7.22;3.90;;;35.80;51.60;;;;;;5101353;28;20276;-52
2022/07/20 12:04:19;;;;;;;6.72;3.90;;;35.70;50.20;;;;;;5109454;28;20207;-52
2022/07/20 12:06:53;;;;;;;3.90;3.40;;;35.70;51.70;;;;;;5104570;28;20219;-52
2022/07/20 12:09:23;;;;;;;8.80;3.70;;;35.70;50.10;;;;;;5109018;28;20223;-52
2022/07/20 12:11:56;;;;;;;6.10;3.85;;;35.70;51.00;;;;;;5108198;28;20245;-52
2022/07/20 12:14:32;;;;;;;5.97;3.63;;;35.70;51.00;;;;;;5108677;28;20206;-52
2022/07/20 12:17:21;;;;;;;5.38;3.70;;;35.70;50.30;;;;;;5106635;28;20722;-53
2022/07/20 12:19:53;;;;;;;8.80;3.80;;;35.60;51.10;;;;;;5108764;28;20701;-52
2022/07/20 12:22:24;;;;;;;6.55;3.28;;;35.60;53.00;;;;;;5106595;28;20207;-51
2022/07/20 12:24:54;;;;;;;9.80;3.85;;;35.70;51.10;;;;;;5107712;28;20226;-52
2022/07/20 12:27:24;;;;;;;8.55;3.75;;;35.80;50.60;;;;;;5108084;28;20578;-53
2022/07/20 12:29:52;;;;;;;11.10;3.50;;;35.90;51.30;;;;;;5108936;28;20264;-52
2022/07/20 12:32:32;;;;;;;6.22;3.50;;;35.90;51.00;;;;;;5103527;28;20571;-52
2022/07/20 12:35:01;;;;;;;6.80;3.90;;;35.90;50.30;;;;;;5099293;28;20223;-52
2022/07/20 12:37:49;;;;;;;7.10;3.50;;;35.90;48.50;;;;;;5097158;28;20217;-51
2022/07/20 12:40:31;;;;;;;6.88;3.47;;;35.90;49.30;;;;;;5108301;28;20203;-53
2022/07/20 12:42:59;;;;;;;5.85;3.42;;;35.80;51.40;;;;;;5102223;28;20206;-52
2022/07/20 12:45:28;;;;;;;5.38;3.63;;;35.80;48.90;;;;;;5105323;28;20299;-51
2022/07/20 12:47:56;;;;;;;7.00;3.58;;;35.70;49.20;;;;;;5111482;28;20202;-52
2022/07/20 12:50:35;;;;;;;5.57;3.72;;;35.70;50.00;;;;;;5112220;28;20271;-51
2022/07/20 12:53:05;;;;;;;5.05;3.28;;;35.90;49.60;;;;;;5111748;28;20203;-52
2022/07/20 12:55:33;;;;;;;7.07;3.83;;;35.90;50.60;;;;;;5111611;28;20227;-52
2022/07/20 12:58:07;;;;;;;6.60;3.47;;;35.90;50.10;;;;;;5111843;28;20211;-52
2022/07/20 13:00:42;;;;;;;7.60;3.83;;;35.90;49.70;;;;;;5110241;28;20227;-52
2022/07/20 13:03:10;;;;;;;9.63;3.80;;;35.90;49.80;;;;;;5110689;28;20206;-52
2022/07/20 13:05:40;;;;;;;7.82;3.55;;;36.00;51.20;;;;;;5109439;28;20702;-52